地図

経路データ

SID SEASON NUMBER BASIN SUBBASIN NAME ISO_TIME NATURE LAT LON WMO_WIND WMO_PRES WMO_AGENCY TRACK_TYPE DIST2LAND LANDFALL IFLAG USA_AGENCY USA_ATCF_ID USA_LAT USA_LON USA_RECORD USA_STATUS USA_WIND USA_PRES USA_SSHS USA_R34_NE USA_R34_SE USA_R34_SW USA_R34_NW USA_R50_NE USA_R50_SE USA_R50_SW USA_R50_NW USA_R64_NE USA_R64_SE USA_R64_SW USA_R64_NW USA_POCI USA_ROCI USA_RMW USA_EYE TOKYO_LAT TOKYO_LON TOKYO_GRADE TOKYO_WIND TOKYO_PRES TOKYO_R50_DIR TOKYO_R50_LONG TOKYO_R50_SHORT TOKYO_R30_DIR TOKYO_R30_LONG TOKYO_R30_SHORT TOKYO_LAND CMA_LAT CMA_LON CMA_CAT CMA_WIND CMA_PRES HKO_LAT HKO_LON HKO_CAT HKO_WIND HKO_PRES NEWDELHI_LAT NEWDELHI_LON NEWDELHI_GRADE NEWDELHI_WIND NEWDELHI_PRES NEWDELHI_CI NEWDELHI_DP NEWDELHI_POCI REUNION_LAT REUNION_LON REUNION_TYPE REUNION_WIND REUNION_PRES REUNION_TNUM REUNION_CI REUNION_RMW REUNION_R34_NE REUNION_R34_SE REUNION_R34_SW REUNION_R34_NW REUNION_R50_NE REUNION_R50_SE REUNION_R50_SW REUNION_R50_NW REUNION_R64_NE REUNION_R64_SE REUNION_R64_SW REUNION_R64_NW BOM_LAT BOM_LON BOM_TYPE BOM_WIND BOM_PRES BOM_TNUM BOM_CI BOM_RMW BOM_R34_NE BOM_R34_SE BOM_R34_SW BOM_R34_NW BOM_R50_NE BOM_R50_SE BOM_R50_SW BOM_R50_NW BOM_R64_NE BOM_R64_SE BOM_R64_SW BOM_R64_NW BOM_ROCI BOM_POCI BOM_EYE BOM_POS_METHOD BOM_PRES_METHOD NADI_LAT NADI_LON NADI_CAT NADI_WIND NADI_PRES WELLINGTON_LAT WELLINGTON_LON WELLINGTON_WIND WELLINGTON_PRES DS824_LAT DS824_LON DS824_STAGE DS824_WIND DS824_PRES TD9636_LAT TD9636_LON TD9636_STAGE TD9636_WIND TD9636_PRES TD9635_LAT TD9635_LON TD9635_WIND TD9635_PRES TD9635_ROCI NEUMANN_LAT NEUMANN_LON NEUMANN_CLASS NEUMANN_WIND NEUMANN_PRES MLC_LAT MLC_LON MLC_CLASS MLC_WIND MLC_PRES USA_GUST BOM_GUST BOM_GUST_PER REUNION_GUST REUNION_GUST_PER USA_SEAHGT USA_SEARAD_NE USA_SEARAD_SE USA_SEARAD_SW USA_SEARAD_NW STORM_SPEED STORM_DIR
1953265N15112 1953 57 WP MM NOT_NAMED 1953-09-21 12:00:00 NR 14.8000 112.000 main 307 251 __________O___ -1 14.8000 112.000 2 14 299
1953265N15112 1953 57 WP MM NOT_NAMED 1953-09-21 15:00:00 NR 15.1329 111.390 main 251 198 __________P___ -1 15.1329 111.390 2 13 299
1953265N15112 1953 57 WP MM NOT_NAMED 1953-09-21 18:00:00 NR 15.4319 110.803 main 198 156 __________P___ -1 15.4319 110.803 2 12 296
1953265N15112 1953 57 WP MM NOT_NAMED 1953-09-21 21:00:00 NR 15.6649 110.264 main 160 117 __________P___ -1 15.6649 110.264 2 10 291
1953265N15112 1953 57 WP MM NOT_NAMED 1953-09-22 00:00:00 NR 15.8000 109.800 main 117 92 __________O___ -1 15.8000 109.800 2 8 281
1953265N15112 1953 57 WP MM NOT_NAMED 1953-09-22 03:00:00 NR 15.8177 109.433 main 85 69 __________P___ -1 15.8177 109.433 2 6 265
1953265N15112 1953 57 WP MM NOT_NAMED 1953-09-22 06:00:00 NR 15.7466 109.174 main 61 39 __________P___ -1 15.7466 109.174 2 4 244
1953265N15112 1953 57 WP MM NOT_NAMED 1953-09-22 09:00:00 NR 15.6272 109.027 main 39 31 __________P___ -1 15.6272 109.027 2 3 214
1953265N15112 1953 57 WP MM NOT_NAMED 1953-09-22 12:00:00 NR 15.5000 109.000 main 31 24 __________O___ -1 15.5000 109.000 2 3 158
1953265N15112 1953 57 WP MM NOT_NAMED 1953-09-22 15:00:00 NR 15.3602 109.138 main 31 31 __________P___ -1 15.3602 109.138 2 5 127
1953265N15112 1953 57 WP MM NOT_NAMED 1953-09-22 18:00:00 NR 15.2304 109.378 main 53 53 __________P___ -1 15.2304 109.378 2 5 113
1953265N15112 1953 57 WP MM NOT_NAMED 1953-09-22 21:00:00 NR 15.1603 109.629 main 72 72 __________P___ -1 15.1603 109.629 2 4 94
1953265N15112 1953 57 WP MM NOT_NAMED 1953-09-23 00:00:00 NR 15.2000 109.800 main 92 92 __________O___ -1 15.2000 109.800 2 4 27
1953265N15112 1953 57 WP MM NOT_NAMED 1953-09-23 03:00:00 NR 15.4707 109.793 main 102 102 __________P___ -1 15.4707 109.793 2 7 350
1953265N15112 1953 57 WP MM NOT_NAMED 1953-09-23 06:00:00 NR 15.8423 109.693 main 108 108 __________P___ -1 15.8423 109.693 2 8 341
1953265N15112 1953 57 WP MM NOT_NAMED 1953-09-23 09:00:00 NR 16.2177 109.522 main 123 120 __________P___ -1 16.2177 109.522 2 8 330
1953265N15112 1953 57 WP MM NOT_NAMED 1953-09-23 12:00:00 NR 16.5000 109.300 main 120 108 __________O___ -1 16.5000 109.300 2 6 311
1953265N15112 1953 57 WP MM NOT_NAMED 1953-09-23 15:00:00 NR 16.6165 109.048 main 100 85 __________P___ -1 16.6165 109.048 2 5 280
1953265N15112 1953 57 WP MM NOT_NAMED 1953-09-23 18:00:00 NR 16.5904 108.776 main 85 54 __________P___ -1 16.5904 108.776 2 6 255
1953265N15112 1953 57 WP MM NOT_NAMED 1953-09-23 21:00:00 NR 16.4691 108.491 main 54 15 __________P___ -1 16.4691 108.491 2 6 242
1953265N15112 1953 57 WP MM NOT_NAMED 1953-09-24 00:00:00 NR 16.3000 108.200 main 15 __________O___ -1 16.3000 108.200 2 7 239

デジタル台風データ・検索

IBTrACS Databaseについて

本データベースは、米国NOAAが公開する1842年以降の世界の熱帯低気圧のベストトラックデータアーカイブInternational Best Track Archive for Climate Stewardship (IBTrACS)を、ウェブで閲覧しやすい形式に変換したものです。

最終更新日:2021-10-27